Big Cabin, Oklahoma
Current Conditions -  °F | °C
As of 11:55 AM on Saturday 20 Dec 2014 (Local Time) from KGCM Reporting Station
Scattered Clouds Scattered Clouds  
Wind Chill: 37°   Ceiling: Unl
Heat Index: 43°   Visibility: 10mi
Dew Point: 34°   Wind: 9mph
Humidity: 70%   Direction: 210°SSW
Pressure: 30.26"   Gusts: NA
Location:  36.54°N, 95.22°W
Report Text: KGCM 201755Z AUTO 21008KT 10SM SCT022 06/01 A3026 RMK AO2
Loading
Personal Weather Stations






























Interactive Weather Map New forecast layout! Learn more

10-Day Weather Forecast

Advertisements
Track Severe Weather on mobile